createdAt,value
2023-02-02T00:01:55.621Z,1.70
2023-02-02T00:07:38.314Z,1.60
2023-02-02T00:10:30.580Z,1.40
2023-02-02T00:13:22.857Z,1.70
2023-02-02T00:16:41.818Z,1.20
2023-02-02T00:19:34.491Z,1.40
2023-02-02T00:22:26.636Z,1.80
2023-02-02T00:25:19.225Z,1.20
2023-02-02T00:28:11.406Z,1.90
2023-02-02T00:31:03.662Z,2.90
2023-02-02T00:33:55.955Z,2.80
2023-02-02T00:36:48.582Z,2.20
2023-02-02T00:39:40.895Z,2.20
2023-02-02T00:42:33.027Z,3.00
2023-02-02T00:45:26.096Z,2.70
2023-02-02T00:48:18.593Z,2.80
2023-02-02T00:51:10.809Z,3.30
2023-02-02T00:54:03.296Z,2.60
2023-02-02T00:56:55.748Z,3.60
2023-02-02T00:59:48.175Z,2.80
2023-02-02T01:02:40.370Z,2.40
2023-02-02T01:05:32.620Z,2.10
2023-02-02T01:08:24.876Z,2.60
2023-02-02T01:11:16.962Z,2.00
2023-02-02T01:14:09.241Z,2.00
2023-02-02T01:17:01.564Z,2.10
2023-02-02T01:19:54.651Z,3.00
2023-02-02T01:22:47.319Z,2.80
2023-02-02T01:25:39.556Z,2.60
2023-02-02T01:28:32.247Z,2.70
2023-02-02T01:31:24.765Z,2.90
2023-02-02T01:34:16.912Z,2.60
2023-02-02T01:37:04.919Z,2.80
2023-02-02T01:39:57.202Z,2.00
2023-02-02T01:42:49.471Z,2.30
2023-02-02T01:45:41.728Z,2.20
2023-02-02T01:48:36.843Z,2.50
2023-02-02T01:51:34.133Z,2.10
2023-02-02T01:54:31.625Z,2.30
2023-02-02T01:57:29.696Z,2.30
2023-02-02T02:00:25.517Z,2.50
2023-02-02T02:03:20.106Z,3.10
2023-02-02T02:06:15.057Z,3.10
2023-02-02T02:09:09.184Z,3.00
2023-02-02T02:12:01.527Z,3.10
2023-02-02T02:15:11.933Z,3.20
2023-02-02T02:18:13.855Z,3.10
2023-02-02T02:21:43.883Z,4.80
2023-02-02T02:25:31.959Z,4.60
2023-02-02T02:28:49.951Z,5.10
2023-02-02T02:32:03.626Z,4.90
2023-02-02T02:35:03.549Z,4.40
2023-02-02T02:38:00.498Z,3.90
2023-02-02T02:40:56.241Z,3.40
2023-02-02T02:43:52.642Z,3.40
2023-02-02T02:46:45.874Z,3.80
2023-02-02T02:49:44.879Z,3.90
2023-02-02T02:52:38.233Z,3.90
2023-02-02T02:55:40.633Z,4.90
2023-02-02T02:58:44.627Z,4.30
2023-02-02T03:01:50.071Z,4.40
2023-02-02T03:04:47.622Z,3.70
2023-02-02T03:07:43.791Z,3.20
2023-02-02T03:10:39.480Z,4.10
2023-02-02T03:13:32.680Z,3.60
2023-02-02T03:16:24.836Z,3.10
2023-02-02T03:19:16.937Z,4.30
2023-02-02T03:22:08.111Z,4.70
2023-02-02T03:25:00.182Z,3.50
2023-02-02T03:27:52.940Z,3.30
2023-02-02T03:30:47.084Z,2.90
2023-02-02T03:36:30.571Z,2.40
2023-02-02T03:39:22.793Z,2.40
2023-02-02T03:42:15.058Z,2.40
2023-02-02T03:45:08.158Z,3.00
2023-02-02T03:48:00.337Z,2.80
2023-02-02T03:50:52.372Z,2.30
2023-02-02T03:53:47.389Z,2.50
2023-02-02T03:56:39.553Z,2.50
2023-02-02T03:59:31.690Z,2.90
2023-02-02T04:02:23.801Z,3.70
2023-02-02T04:05:15.999Z,2.50
2023-02-02T04:08:08.198Z,2.10
2023-02-02T04:11:00.667Z,2.20
2023-02-02T04:13:52.781Z,2.70
2023-02-02T04:16:45.059Z,2.60
2023-02-02T04:19:37.169Z,2.10
2023-02-02T04:22:29.737Z,1.80
2023-02-02T04:25:22.014Z,1.80
2023-02-02T04:28:14.273Z,2.20
2023-02-02T04:31:06.668Z,1.90
2023-02-02T04:33:59.576Z,2.40
2023-02-02T04:36:51.689Z,2.20
2023-02-02T04:39:43.839Z,2.70
2023-02-02T04:42:35.987Z,2.50
2023-02-02T04:45:28.342Z,3.10
2023-02-02T04:48:20.668Z,3.60
2023-02-02T04:51:15.158Z,3.80
2023-02-02T04:54:08.242Z,4.20
2023-02-02T04:57:02.815Z,2.40
2023-02-02T04:59:54.910Z,2.50
2023-02-02T05:02:47.131Z,3.10
2023-02-02T05:05:39.233Z,2.50
2023-02-02T05:08:31.635Z,3.90
2023-02-02T05:11:24.949Z,1.70
2023-02-02T05:14:18.494Z,2.50
2023-02-02T05:17:10.713Z,3.10
2023-02-02T05:20:02.898Z,3.00
2023-02-02T05:22:54.975Z,3.20
2023-02-02T05:25:52.363Z,3.00
2023-02-02T05:28:44.514Z,2.80
2023-02-02T05:31:22.188Z,3.20
2023-02-02T05:34:14.415Z,3.00
2023-02-02T05:37:06.632Z,3.70
2023-02-02T05:39:58.782Z,3.00
2023-02-02T05:42:51.654Z,2.90
2023-02-02T05:45:44.014Z,1.90
2023-02-02T05:48:36.362Z,1.90
2023-02-02T05:51:32.941Z,1.60
2023-02-02T05:54:25.236Z,2.00
2023-02-02T05:57:08.155Z,1.80
2023-02-02T06:00:00.367Z,1.60
2023-02-02T06:02:52.644Z,2.40
2023-02-02T06:05:44.863Z,2.80
2023-02-02T06:08:37.516Z,2.60
2023-02-02T06:11:29.613Z,2.10
2023-02-02T06:14:21.707Z,3.20
2023-02-02T06:17:13.809Z,2.20
2023-02-02T06:20:06.906Z,2.40
2023-02-02T06:22:59.175Z,2.60
2023-02-02T06:25:51.260Z,2.10
2023-02-02T06:28:43.836Z,2.70
2023-02-02T06:31:36.139Z,2.40
2023-02-02T06:34:28.388Z,2.30
2023-02-02T06:37:20.539Z,1.50
2023-02-02T06:40:14.392Z,1.70
2023-02-02T06:43:06.728Z,1.90
2023-02-02T06:45:40.272Z,2.40
2023-02-02T06:48:32.442Z,2.20
2023-02-02T06:51:25.223Z,1.90
2023-02-02T06:54:17.397Z,3.10
2023-02-02T06:57:10.358Z,3.40
2023-02-02T07:00:02.590Z,3.70
2023-02-02T07:02:54.827Z,3.30
2023-02-02T07:05:47.244Z,3.50
2023-02-02T07:08:39.375Z,3.40
2023-02-02T07:11:32.983Z,3.70
2023-02-02T07:14:27.017Z,3.50
2023-02-02T07:17:19.906Z,2.70
2023-02-02T07:20:13.474Z,2.80
2023-02-02T07:23:06.301Z,3.10
2023-02-02T07:26:06.541Z,2.80
2023-02-02T07:28:58.713Z,2.60
2023-02-02T07:31:51.105Z,3.60
2023-02-02T07:34:44.184Z,3.90
2023-02-02T07:37:19.039Z,3.60
2023-02-02T07:40:13.388Z,3.00
2023-02-02T07:43:05.707Z,3.00
2023-02-02T07:46:02.111Z,3.30
2023-02-02T07:48:56.393Z,3.10
2023-02-02T07:54:33.241Z,3.70
2023-02-02T07:57:25.429Z,2.90
2023-02-02T08:00:18.979Z,2.90
2023-02-02T08:03:13.638Z,3.10
2023-02-02T08:06:12.898Z,3.20
2023-02-02T08:09:09.699Z,3.20
2023-02-02T08:12:02.390Z,3.70
2023-02-02T08:14:54.653Z,4.50
2023-02-02T08:17:50.022Z,4.20
2023-02-02T08:20:42.187Z,5.70
2023-02-02T08:23:34.407Z,5.20
2023-02-02T08:26:28.513Z,5.20
2023-02-02T08:32:11.359Z,5.80
2023-02-02T08:35:03.501Z,5.70
2023-02-02T08:37:55.578Z,6.00
2023-02-02T08:40:47.996Z,6.80
2023-02-02T08:43:40.496Z,5.50
2023-02-02T08:46:33.015Z,4.80
2023-02-02T08:49:25.912Z,4.10
2023-02-02T08:52:18.019Z,4.40
2023-02-02T08:55:10.803Z,3.90
2023-02-02T08:58:03.203Z,4.80
2023-02-02T09:00:55.471Z,4.80
2023-02-02T09:03:47.933Z,4.50
2023-02-02T09:06:41.935Z,4.70
2023-02-02T09:09:34.111Z,3.50
2023-02-02T09:12:26.276Z,4.20
2023-02-02T09:15:18.546Z,5.20
2023-02-02T09:18:10.619Z,2.90
2023-02-02T09:21:04.932Z,3.80
2023-02-02T09:23:57.199Z,4.40
2023-02-02T09:26:49.473Z,3.20
2023-02-02T09:29:41.631Z,3.80
2023-02-02T09:32:34.093Z,4.20
2023-02-02T09:35:26.664Z,4.20
2023-02-02T09:38:19.008Z,4.30
2023-02-02T09:41:41.788Z,3.80
2023-02-02T09:44:49.976Z,3.40
2023-02-02T09:47:58.524Z,3.30
2023-02-02T09:50:54.523Z,3.60
2023-02-02T09:53:55.750Z,2.90
2023-02-02T09:56:54.615Z,3.00
2023-02-02T09:59:49.703Z,3.60
2023-02-02T10:02:46.175Z,3.50
2023-02-02T10:05:50.250Z,4.30
2023-02-02T10:08:49.771Z,5.70
2023-02-02T10:11:50.121Z,4.20
2023-02-02T10:14:48.421Z,4.40
2023-02-02T10:17:46.647Z,3.30
2023-02-02T10:20:45.508Z,4.00
2023-02-02T10:23:40.256Z,3.40
2023-02-02T10:26:39.945Z,2.50
2023-02-02T10:29:48.459Z,2.50
2023-02-02T10:32:27.124Z,1.80
2023-02-02T10:35:37.089Z,2.60
2023-02-02T10:38:39.874Z,2.30
2023-02-02T10:41:42.541Z,3.10
2023-02-02T10:44:44.506Z,4.30
2023-02-02T10:47:38.678Z,2.40
2023-02-02T10:53:25.895Z,2.00
2023-02-02T10:56:22.205Z,1.60
2023-02-02T10:59:20.533Z,1.70
2023-02-02T11:01:52.608Z,1.40
2023-02-02T11:04:52.441Z,1.70
2023-02-02T11:07:44.716Z,1.40
2023-02-02T11:10:36.829Z,1.40
2023-02-02T11:13:32.513Z,1.80
2023-02-02T11:16:38.720Z,1.80
2023-02-02T11:19:36.483Z,2.60
2023-02-02T11:22:35.400Z,3.40
2023-02-02T11:25:32.256Z,4.90
2023-02-02T11:28:30.285Z,2.90
2023-02-02T11:31:39.751Z,1.80
2023-02-02T11:34:32.150Z,1.60
2023-02-02T11:37:16.933Z,1.40
2023-02-02T11:40:28.590Z,1.50
2023-02-02T11:43:29.203Z,2.70
2023-02-02T11:46:24.719Z,2.50
2023-02-02T11:49:19.980Z,2.20
2023-02-02T11:52:21.879Z,2.10
2023-02-02T11:55:23.302Z,1.80
2023-02-02T11:58:28.384Z,2.00
2023-02-02T12:01:28.653Z,1.70
2023-02-02T12:04:27.756Z,1.80
2023-02-02T12:07:24.934Z,1.80
2023-02-02T12:10:27.573Z,1.10
2023-02-02T12:13:30.659Z,1.50
2023-02-02T12:16:42.818Z,2.20
2023-02-02T12:20:05.901Z,2.30
2023-02-02T12:23:01.189Z,2.20
2023-02-02T12:26:06.504Z,1.80
2023-02-02T12:28:49.990Z,1.80
2023-02-02T12:32:06.038Z,2.00
2023-02-02T12:35:21.602Z,1.80
2023-02-02T12:38:23.095Z,2.00
2023-02-02T12:41:31.611Z,1.70
2023-02-02T12:44:15.245Z,5.10
2023-02-02T12:47:19.594Z,8.10
2023-02-02T12:50:31.219Z,1.20
2023-02-02T12:53:25.370Z,1.40
2023-02-02T12:56:28.278Z,1.90
2023-02-02T12:59:48.437Z,2.10
2023-02-02T13:02:48.902Z,3.10
2023-02-02T13:05:56.890Z,2.70
2023-02-02T13:08:54.014Z,2.70
2023-02-02T13:11:42.756Z,2.20
2023-02-02T13:14:41.752Z,2.30
2023-02-02T13:17:40.176Z,3.20
2023-02-02T13:20:41.391Z,2.30
2023-02-02T13:23:38.104Z,1.90
2023-02-02T13:26:35.311Z,1.90
2023-02-02T13:29:34.408Z,2.40
2023-02-02T13:32:42.780Z,2.70
2023-02-02T13:35:45.299Z,2.30
2023-02-02T13:38:42.072Z,3.10
2023-02-02T13:41:34.600Z,1.80
2023-02-02T13:44:33.243Z,2.90
2023-02-02T13:47:33.363Z,6.20
2023-02-02T13:50:12.454Z,11.80
2023-02-02T13:53:27.229Z,7.70
2023-02-02T13:59:36.027Z,6.70
2023-02-02T14:02:34.494Z,10.70
2023-02-02T14:05:29.385Z,4.30
2023-02-02T14:08:23.085Z,7.30
2023-02-02T14:11:22.683Z,3.40
2023-02-02T14:14:35.735Z,3.10
2023-02-02T14:17:53.579Z,24.40
2023-02-02T14:20:50.323Z,5.10
2023-02-02T14:23:56.412Z,5.40
2023-02-02T14:26:50.426Z,7.80
2023-02-02T14:30:01.335Z,10.40
2023-02-02T14:32:53.461Z,8.90
2023-02-02T14:36:04.215Z,10.50
2023-02-02T14:39:19.862Z,5.60
2023-02-02T14:42:36.395Z,36.60
2023-02-02T14:45:33.396Z,32.90
2023-02-02T14:48:26.731Z,34.00
2023-02-02T14:51:22.277Z,19.20
2023-02-02T14:54:26.366Z,17.60
2023-02-02T14:57:28.901Z,54.60
2023-02-02T15:00:27.159Z,27.50
2023-02-02T15:03:49.061Z,20.10
2023-02-02T15:06:43.237Z,9.20
2023-02-02T15:12:39.418Z,6.20
2023-02-02T15:15:37.042Z,4.60
2023-02-02T15:18:34.306Z,9.40
2023-02-02T15:21:27.755Z,5.90
2023-02-02T15:24:25.767Z,4.90
2023-02-02T15:27:21.939Z,4.60
2023-02-02T15:30:17.937Z,7.80
2023-02-02T15:33:28.591Z,5.60
2023-02-02T15:36:24.671Z,6.30
2023-02-02T15:39:31.139Z,5.80
2023-02-02T15:42:49.175Z,6.80
2023-02-02T15:45:46.069Z,5.30
2023-02-02T15:48:38.283Z,5.20
2023-02-02T15:51:31.410Z,3.30
2023-02-02T15:54:29.096Z,3.80
2023-02-02T15:57:38.278Z,4.70
2023-02-02T16:00:33.820Z,3.80
2023-02-02T16:03:31.800Z,2.80
2023-02-02T16:06:24.244Z,2.90
2023-02-02T16:09:25.055Z,3.60
2023-02-02T16:12:19.859Z,4.20
2023-02-02T16:15:22.171Z,9.00
2023-02-02T16:18:16.482Z,7.20
2023-02-02T16:21:25.877Z,8.70
2023-02-02T16:24:01.550Z,8.10
2023-02-02T16:26:55.841Z,4.30
2023-02-02T16:29:48.231Z,4.70
2023-02-02T16:32:42.154Z,5.40
2023-02-02T16:35:36.428Z,3.90
2023-02-02T16:41:32.711Z,3.60
2023-02-02T16:44:40.584Z,3.50
2023-02-02T16:47:39.083Z,2.80
2023-02-02T16:50:34.573Z,2.40
2023-02-02T16:53:29.305Z,2.70
2023-02-02T16:56:27.970Z,2.00
2023-02-02T16:59:24.484Z,3.00
2023-02-02T17:02:25.832Z,3.30
2023-02-02T17:05:25.704Z,3.10
2023-02-02T17:08:29.446Z,4.00
2023-02-02T17:11:26.269Z,5.20
2023-02-02T17:14:31.866Z,4.20
2023-02-02T17:17:24.337Z,5.20
2023-02-02T17:19:59.283Z,4.20
2023-02-02T17:22:56.213Z,4.60
2023-02-02T17:25:49.007Z,4.40
2023-02-02T17:28:42.859Z,4.30
2023-02-02T17:31:25.489Z,3.00
2023-02-02T17:34:19.577Z,3.70
2023-02-02T17:37:13.035Z,4.00
2023-02-02T17:40:05.882Z,3.20
2023-02-02T17:42:58.196Z,4.30
2023-02-02T17:45:50.629Z,4.20
2023-02-02T17:48:43.341Z,3.90
2023-02-02T17:51:49.100Z,3.70
2023-02-02T17:54:41.434Z,3.50
2023-02-02T17:57:33.602Z,3.60
2023-02-02T18:00:31.027Z,4.40
2023-02-02T18:03:25.734Z,5.00
2023-02-02T18:06:18.049Z,4.10
2023-02-02T18:09:11.230Z,3.30
2023-02-02T18:12:03.300Z,4.20
2023-02-02T18:14:55.418Z,4.30
2023-02-02T18:17:47.926Z,6.00
2023-02-02T18:20:41.502Z,5.60
2023-02-02T18:23:33.875Z,6.40
2023-02-02T18:26:27.249Z,5.60
2023-02-02T18:29:19.333Z,6.30
2023-02-02T18:32:11.469Z,5.20
2023-02-02T18:35:03.743Z,5.60
2023-02-02T18:37:55.897Z,5.30
2023-02-02T18:41:02.213Z,7.30
2023-02-02T18:43:56.560Z,6.10
2023-02-02T18:46:49.007Z,5.90
2023-02-02T18:49:41.489Z,4.60
2023-02-02T18:52:36.111Z,5.80
2023-02-02T18:55:29.103Z,6.00
2023-02-02T18:58:21.303Z,3.90
2023-02-02T19:01:16.570Z,4.80
2023-02-02T19:04:08.906Z,4.00
2023-02-02T19:07:18.742Z,4.60
2023-02-02T19:10:13.312Z,4.30
2023-02-02T19:13:15.904Z,5.70
2023-02-02T19:16:18.523Z,6.50
2023-02-02T19:19:22.070Z,6.80
2023-02-02T19:22:11.101Z,5.50
2023-02-02T19:25:14.552Z,4.80
2023-02-02T19:28:22.541Z,4.90
2023-02-02T19:31:16.548Z,7.60
2023-02-02T19:33:58.975Z,4.90
2023-02-02T19:36:52.268Z,4.00
2023-02-02T19:39:47.047Z,4.50
2023-02-02T19:42:42.251Z,4.20
2023-02-02T19:45:28.176Z,3.40
2023-02-02T19:48:23.724Z,3.30
2023-02-02T19:51:39.130Z,3.60
2023-02-02T19:54:34.171Z,3.50
2023-02-02T19:57:34.079Z,3.20
2023-02-02T20:00:29.427Z,3.40
2023-02-02T20:03:24.250Z,3.90
2023-02-02T20:06:23.860Z,3.60
2023-02-02T20:09:19.203Z,3.70
2023-02-02T20:12:23.343Z,4.80
2023-02-02T20:15:29.140Z,4.60
2023-02-02T20:21:19.531Z,4.40
2023-02-02T20:24:18.383Z,4.70
2023-02-02T20:30:18.181Z,3.20
2023-02-02T20:33:22.109Z,3.30
2023-02-02T20:36:28.648Z,3.30
2023-02-02T20:39:29.890Z,3.30
2023-02-02T20:42:22.099Z,3.70
2023-02-02T20:45:14.423Z,4.30
2023-02-02T20:48:07.002Z,4.20
2023-02-02T20:50:59.132Z,4.70
2023-02-02T20:53:55.622Z,4.90
2023-02-02T20:56:47.989Z,5.20
2023-02-02T20:59:40.217Z,5.00
2023-02-02T21:02:32.578Z,4.30
2023-02-02T21:05:25.241Z,4.00
2023-02-02T21:08:17.396Z,3.80
2023-02-02T21:11:09.823Z,4.90
2023-02-02T21:14:02.478Z,4.10
2023-02-02T21:17:08.867Z,6.40
2023-02-02T21:20:06.530Z,4.90
2023-02-02T21:22:49.387Z,5.50
2023-02-02T21:25:41.943Z,5.20
2023-02-02T21:28:34.181Z,4.70
2023-02-02T21:31:26.561Z,4.70
2023-02-02T21:34:20.824Z,5.10
2023-02-02T21:40:13.961Z,5.20
2023-02-02T21:43:16.363Z,5.90
2023-02-02T21:46:18.890Z,5.40
2023-02-02T21:49:25.267Z,5.70
2023-02-02T21:52:19.534Z,5.10
2023-02-02T21:55:33.424Z,5.10
2023-02-02T21:58:29.615Z,5.30
2023-02-02T22:01:27.355Z,4.20
2023-02-02T22:04:25.124Z,4.70
2023-02-02T22:07:17.813Z,4.10
2023-02-02T22:10:26.684Z,3.80
2023-02-02T22:13:21.430Z,3.30
2023-02-02T22:16:18.940Z,4.20
2023-02-02T22:19:25.720Z,4.40
2023-02-02T22:22:19.906Z,4.70
2023-02-02T22:28:23.414Z,5.00
2023-02-02T22:31:15.667Z,5.60
2023-02-02T22:34:07.840Z,6.10
2023-02-02T22:36:59.897Z,5.70
2023-02-02T22:39:52.096Z,5.80
2023-02-02T22:42:24.082Z,5.70
2023-02-02T22:45:16.488Z,5.60
2023-02-02T22:48:08.941Z,5.80
2023-02-02T22:51:01.167Z,5.10
2023-02-02T22:53:53.333Z,4.90
2023-02-02T22:56:45.530Z,5.00
2023-02-02T22:59:37.734Z,4.30
2023-02-02T23:02:29.944Z,4.20
2023-02-02T23:05:23.590Z,4.70
2023-02-02T23:08:15.761Z,4.70
2023-02-02T23:11:07.976Z,4.00
2023-02-02T23:14:00.070Z,4.30
2023-02-02T23:16:52.235Z,4.40
2023-02-02T23:19:24.157Z,4.40
2023-02-02T23:22:16.382Z,3.30
2023-02-02T23:25:09.285Z,3.20
2023-02-02T23:28:01.451Z,3.30
2023-02-02T23:30:54.630Z,3.30
2023-02-02T23:33:46.913Z,4.80
2023-02-02T23:36:39.061Z,5.80
2023-02-02T23:39:31.184Z,6.20
2023-02-02T23:42:23.387Z,6.40
2023-02-02T23:45:16.506Z,6.70
2023-02-02T23:48:10.021Z,6.30
2023-02-02T23:51:02.429Z,6.70
2023-02-02T23:53:55.616Z,5.20
2023-02-02T23:56:47.816Z,5.70
2023-02-02T23:59:40.024Z,6.60
